Date,TemperatureHighF,TemperatureAvgF,TemperatureLowF,DewpointHighF,DewpointAvgF,DewpointLowF,HumidityHigh,HumidityAvg,HumidityLow,PressureMaxIn,PressureMinIn,WindSpeedMaxMPH,WindSpeedAvgMPH,GustSpeedMaxMPH,PrecipitationSumIn
2013-1-1,17,10,4,8,1,-3,72,65,54,0.00,40.00,13,6,16,0.00
2013-1-2,33,20,6,20,10,-1,78,65,52,0.00,40.00,12,8,17,0.00
2013-1-3,29,22,10,24,14,4,82,71,59,0.00,40.00,19,12,26,0.00
2013-1-4,35,22,10,21,14,4,79,70,55,0.00,40.00,18,12,25,0.00
2013-1-5,36,30,21,32,25,16,85,79,63,0.00,40.00,20,11,30,0.13
2013-1-6,28,21,15,20,13,9,80,71,54,0.00,40.00,21,12,27,0.00
2013-1-7,40,30,17,24,18,10,74,63,43,0.00,40.00,20,10,27,15.92
2013-1-8,42,36,29,27,25,21,71,63,53,0.00,40.00,16,10,28,45.54
2013-1-9,44,36,31,30,27,24,83,70,52,0.00,40.00,21,10,26,32.24
2013-1-10,40,35,29,36,27,21,89,73,48,0.00,40.00,19,9,26,0.51
2013-1-11,54,46,38,48,41,35,89,83,64,0.00,40.00,18,11,29,0.00
2013-1-12,52,34,20,42,24,13,82,68,53,0.00,40.00,26,14,38,0.11
2013-1-13,20,15,10,15,6,3,82,65,58,0.00,40.00,19,13,27,0.01
2013-1-14,28,16,6,9,5,0,77,62,42,0.00,40.00,9,5,13,0.00
2013-1-15,31,20,12,13,8,4,75,58,36,0.00,40.00,9,4,12,0.00
2013-1-16,38,28,15,31,18,4,82,63,48,0.00,40.00,21,11,29,0.00
2013-1-17,35,26,20,31,15,7,82,63,39,0.00,40.00,16,11,20,0.00
2013-1-18,47,44,42,29,28,27,60,53,45,0.00,40.00,26,17,35,0.00
2013-1-19,51,41,21,32,27,5,69,59,44,0.00,40.00,36,17,47,0.00
2013-1-20,21,14,10,7,3,-1,70,61,51,0.00,40.00,27,15,40,0.01
2013-1-21,13,6,1,4,-5,-10,69,59,45,0.00,40.00,27,17,40,0.00
2013-1-22,14,7,-2,-1,-5,-10,71,57,45,0.00,40.00,16,9,22,0.00
2013-1-23,29,18,11,10,4,-3,60,52,43,0.00,40.00,28,12,35,0.00
2013-1-24,22,13,4,6,-3,-8,58,50,38,0.00,40.00,18,9,25,0.00
2013-1-25,36,25,14,16,10,3,77,54,38,0.00,40.00,24,13,30,0.00
2013-1-26,30,20,7,11,6,1,76,56,38,0.00,40.00,12,6,19,0.00
2013-1-27,43,33,28,40,24,11,89,72,47,0.00,40.00,21,11,29,0.63
2013-1-28,51,42,37,47,39,34,89,89,89,0.00,40.00,16,9,24,0.00
2013-1-29,61,50,35,56,46,32,89,87,81,0.00,40.00,19,11,29,2.32
2013-1-30,35,27,14,33,22,7,88,83,68,0.00,40.00,30,18,38,1.27
2013-1-31,14,7,0,7,-4,-10,71,61,57,0.00,40.00,27,21,35,0.00
2013-2-1,20,6,-3,11,-6,-12,66,58,50,0.00,40.00,22,10,27,0.00
2013-2-2,25,19,14,20,10,5,81,69,56,0.00,40.00,19,10,25,0.04
2013-2-3,25,20,16,17,11,7,84,67,49,0.00,40.00,23,11,31,0.07
2013-2-4,27,23,15,19,14,9,79,69,57,0.00,40.00,19,8,23,0.00
2013-2-5,36,28,15,27,21,9,81,74,64,0.00,40.00,19,10,26,0.00
2013-2-6,44,34,21,30,25,17,85,70,57,0.00,40.00,17,8,24,0.51
2013-2-7,39,36,32,34,32,28,88,86,71,0.00,40.00,16,8,24,5.73
2013-2-8,32,28,27,28,22,19,85,74,69,0.00,40.00,20,9,24,0.00
2013-2-9,36,30,26,28,24,20,85,77,63,0.00,40.00,25,11,34,0.00
2013-2-10,50,41,32,45,35,28,88,81,55,0.00,40.00,35,18,46,0.39
2013-2-11,36,32,28,29,21,18,72,64,58,0.00,40.00,37,25,50,0.00
2013-2-12,38,30,25,25,20,16,78,65,51,0.00,40.00,18,10,22,0.00
2013-2-13,43,35,27,30,27,23,84,71,55,0.00,40.00,16,8,19,0.00
2013-2-14,41,37,30,31,28,23,85,70,49,0.00,40.00,23,14,32,0.00
2013-2-15,30,24,18,25,11,5,82,56,35,0.00,40.00,20,14,26,0.00
2013-2-16,24,18,12,12,9,5,76,66,54,0.00,40.00,16,9,24,0.00
2013-2-17,36,25,14,21,13,7,79,60,42,0.00,40.00,21,12,28,0.00
2013-2-18,56,37,18,42,28,9,89,71,46,0.00,40.00,32,18,41,1.61
2013-2-19,20,13,6,9,2,-3,69,61,51,0.00,40.00,34,23,42,0.00
2013-2-20,24,14,4,10,3,-5,74,63,53,0.00,40.00,14,7,21,0.00
2013-2-21,28,21,13,24,16,7,89,79,69,0.00,40.00,27,13,37,0.00
2013-2-22,34,27,23,31,23,18,89,83,70,0.00,40.00,19,12,27,6.64
2013-2-23,31,24,18,19,16,12,80,70,56,0.00,40.00,16,10,21,3.56
2013-2-24,38,25,11,22,16,8,85,71,44,0.00,40.00,7,4,9,11.96
2013-2-25,40,32,22,29,24,19,87,75,53,0.00,40.00,18,7,23,2.16
2013-2-26,35,32,30,29,27,26,89,81,68,0.00,40.00,26,19,37,0.52
2013-2-27,33,31,29,30,28,26,88,87,86,0.00,40.00,20,14,24,0.63
2013-2-28,35,32,29,29,27,26,88,81,71,0.00,40.00,17,10,20,0.42
2013-3-1,29,26,22,27,19,15,88,73,59,0.00,40.00,19,11,24,0.01
2013-3-2,29,20,12,17,11,5,80,67,49,0.00,40.00,10,7,14,0.00
2013-3-3,31,21,7,15,9,3,83,62,40,0.00,40.00,9,4,13,0.00
2013-3-4,34,29,25,26,20,11,84,69,55,0.00,40.00,24,13,31,0.03
2013-3-5,31,30,28,27,25,22,88,83,76,0.00,40.00,22,13,27,0.74
2013-3-6,30,26,20,22,19,16,82,74,65,0.00,40.00,19,10,22,0.00
2013-3-7,36,26,16,22,18,12,83,73,53,0.00,40.00,10,4,14,0.00
2013-3-8,41,32,22,31,25,18,86,74,57,0.00,40.00,16,10,24,0.00
2013-3-9,43,38,35,40,34,30,88,85,76,0.00,40.00,21,13,27,2.14
2013-3-10,46,41,36,43,38,33,88,88,87,0.00,40.00,23,7,31,2.14
2013-3-11,36,33,29,33,28,19,88,83,63,0.00,40.00,22,12,30,0.38
2013-3-12,34,29,25,28,21,14,84,70,54,0.00,40.00,26,17,35,0.42
2013-3-13,34,27,21,19,13,8,74,57,34,0.00,40.00,21,14,27,0.00
2013-3-14,47,34,24,29,22,17,78,62,40,0.00,40.00,18,7,23,0.00
2013-3-15,46,37,31,33,30,27,87,75,53,0.00,40.00,12,6,17,0.00
2013-3-16,37,34,30,32,27,22,89,78,57,0.00,40.00,13,9,18,0.00
2013-3-17,36,31,26,25,19,13,73,61,50,0.00,40.00,19,13,24,0.00
2013-3-18,35,30,21,32,22,8,87,75,55,0.00,40.00,33,15,43,2.90
2013-3-19,33,24,15,16,9,4,64,53,37,0.00,40.00,24,18,34,0.00
2013-3-20,27,19,13,16,5,2,70,54,42,0.00,40.00,26,20,34,0.00
2013-3-21,32,22,10,15,8,4,74,56,36,0.00,40.00,12,5,17,0.00
2013-3-22,42,30,18,22,16,12,84,60,30,0.00,40.00,7,4,11,0.00
2013-3-23,42,34,26,25,19,13,84,55,30,0.00,40.00,12,6,18,0.00
2013-3-24,34,30,28,28,26,21,89,86,60,0.00,40.00,21,14,26,5.16
2013-3-25,36,32,28,26,22,17,89,68,55,0.00,40.00,21,-1,26,0.00
2013-3-26,40,34,25,24,22,19,81,63,45,0.00,40.00,18,10,22,0.00
2013-3-27,46,37,29,27,21,16,83,56,30,0.00,40.00,8,4,12,0.00
2013-3-28,54,41,28,30,25,20,81,56,28,0.00,40.00,9,3,12,0.00
2013-3-29,56,46,33,33,28,26,82,53,32,0.00,40.00,9,4,12,0.00
2013-3-30,56,46,38,43,35,-100,86,67,50,0.00,40.00,19,11,26,0.20
2013-3-31,53,45,34,43,33,20,88,66,34,0.00,40.00,24,13,31,0.00
2013-4-1,39,32,26,22,17,13,78,55,36,0.00,40.00,19,13,26,0.00
2013-4-2,44,32,21,23,16,9,83,55,24,0.00,40.00,20,9,27,0.00
2013-4-3,48,36,22,23,15,10,80,46,23,0.00,40.00,11,5,15,0.00
2013-4-4,62,44,33,37,23,10,78,44,26,0.00,40.00,14,8,21,0.00
2013-4-5,56,45,31,35,25,19,82,50,24,0.00,40.00,20,8,29,0.00
2013-4-6,69,54,41,51,33,18,82,46,31,0.00,40.00,29,17,38,0.03
2013-4-7,64,51,38,45,38,34,87,63,36,0.00,40.00,19,8,27,0.00
2013-4-8,73,60,48,57,48,39,88,65,40,0.00,40.00,20,10,29,0.47
2013-4-9,76,55,43,59,49,39,87,82,55,0.00,40.00,22,13,30,0.15
2013-4-10,43,40,37,40,37,34,89,88,87,0.00,40.00,32,15,45,1.76
2013-4-11,48,42,37,44,38,31,88,87,78,0.00,40.00,22,12,29,0.00
2013-4-12,41,38,36,35,30,27,87,74,59,0.00,40.00,26,14,29,0.00
2013-4-13,50,41,34,33,27,21,80,59,40,0.00,40.00,21,12,28,0.00
2013-4-14,75,56,40,53,39,32,87,57,31,0.00,40.00,23,15,42,0.18
2013-4-15,62,51,41,52,41,30,87,72,33,0.00,40.00,23,9,27,0.21
2013-4-16,52,44,35,37,32,27,85,63,43,0.00,40.00,12,6,16,0.00
2013-4-17,51,45,41,47,39,32,89,81,62,0.00,40.00,26,14,34,2.07
2013-4-18,62,51,37,58,47,28,88,84,69,0.00,40.00,34,17,43,1.18
2013-4-19,39,36,34,29,26,22,77,65,53,0.00,40.00,29,22,39,0.46
2013-4-20,48,38,29,28,22,16,83,55,30,0.00,40.00,12,6,17,0.00
2013-4-21,59,47,37,36,29,23,57,49,40,0.00,40.00,24,15,35,0.00
2013-4-22,68,64,53,46,34,32,79,34,26,0.00,40.00,19,12,28,0.03
2013-4-23,53,42,38,48,37,30,87,81,68,0.00,40.00,22,12,27,1.66
2013-4-24,54,43,34,31,25,20,74,52,26,0.00,40.00,17,11,23,0.00
2013-4-25,56,46,35,38,23,14,85,45,19,0.00,40.00,21,13,32,0.00
2013-4-26,69,56,44,45,37,25,67,48,35,0.00,40.00,24,14,35,0.00
2013-4-27,65,57,46,46,42,37,87,60,38,0.00,40.00,12,6,21,0.00
2013-4-28,74,62,47,50,43,38,87,53,28,0.00,40.00,10,5,16,0.00
2013-4-29,80,66,51,57,50,47,86,60,38,0.00,40.00,21,12,31,0.00
2013-4-30,88,75,65,58,51,43,76,48,22,0.00,40.00,28,14,35,0.00
2013-5-1,84,72,56,55,50,43,74,49,26,0.00,40.00,22,10,34,0.00
2013-5-2,56,46,38,44,40,36,91,79,63,0.00,40.00,24,17,30,0.77
2013-5-3,51,41,36,48,38,33,90,88,87,0.00,40.00,21,14,26,4.88
2013-5-4,69,59,51,58,52,48,88,79,49,0.00,40.00,17,9,24,0.61
2013-5-5,74,61,51,56,47,42,88,64,33,0.00,40.00,15,7,19,0.00
2013-5-6,75,64,51,51,45,40,83,54,28,0.00,40.00,14,6,19,0.00
2013-5-7,79,68,55,51,43,38,80,44,24,0.00,40.00,9,3,15,0.00
2013-5-8,82,70,57,56,48,44,73,48,28,0.00,40.00,10,-10,20,0.03
2013-5-9,71,64,60,61,58,55,87,80,58,0.00,40.00,14,7,21,0.57
2013-5-10,60,52,47,56,44,-100,87,79,67,0.00,40.00,21,2,26,0.08
2013-5-11,56,50,42,48,30,-100,87,52,23,0.00,40.00,32,16,42,0.04
2013-5-12,58,47,35,29,23,18,73,43,21,0.00,40.00,20,11,32,0.00
2013-5-13,71,57,39,38,30,25,59,38,20,0.00,40.00,12,5,19,0.00
2013-5-14,93,75,57,57,50,36,64,42,24,0.00,40.00,19,11,27,0.00
2013-5-15,83,74,63,51,46,41,56,37,24,0.00,40.00,25,9,35,0.00
2013-5-16,84,67,57,53,30,-100,66,43,24,0.00,40.00,12,5,25,0.00
2013-5-17,83,72,64,62,52,-100,81,57,32,0.00,40.00,15,7,24,0.00
2013-5-18,82,72,62,63,58,54,87,63,40,0.00,40.00,12,7,19,0.00
2013-5-19,86,74,67,71,62,49,87,67,35,0.00,40.00,25,12,40,0.51
2013-5-20,82,72,63,60,58,53,87,63,42,0.00,40.00,32,11,47,0.05
2013-5-21,77,70,62,62,55,49,87,61,39,0.00,40.00,16,10,24,0.00
2013-5-22,69,63,59,55,53,48,84,71,48,0.00,40.00,18,8,25,0.01
2013-5-23,67,59,52,54,46,37,88,65,34,0.00,40.00,21,12,29,0.46
2013-5-24,68,56,42,42,33,29,85,45,23,0.00,40.00,11,6,17,0.00
2013-5-25,58,51,47,48,44,36,88,77,42,0.00,40.00,17,8,24,1.25
2013-5-26,58,53,49,55,48,43,88,84,76,0.00,40.00,19,10,25,2.41
2013-5-27,71,63,56,63,58,53,88,84,71,0.00,40.00,18,9,27,2.96
2013-5-28,81,71,64,70,64,60,87,80,68,0.00,40.00,19,9,32,0.40
2013-5-29,83,73,63,67,62,57,85,67,48,0.00,40.00,21,10,28,0.11
2013-5-30,83,72,63,68,62,59,87,72,53,0.00,40.00,29,14,37,0.10
2013-5-31,75,68,63,66,60,52,87,75,49,0.00,40.00,31,10,43,0.03
2013-6-1,77,69,63,65,59,50,87,71,40,0.00,40.00,20,9,29,0.00
2013-6-2,63,59,53,58,46,39,85,64,45,0.00,40.00,17,10,24,0.00
2013-6-3,70,61,50,48,43,39,82,54,33,0.00,40.00,8,4,14,0.00
2013-6-4,72,64,53,53,46,43,75,53,37,0.00,40.00,24,7,32,0.07
2013-6-5,66,63,58,60,55,50,88,76,64,0.00,40.00,12,6,21,0.15
2013-6-6,67,60,56,56,54,52,87,80,65,0.00,40.00,10,5,16,0.09
2013-6-7,72,63,57,55,50,45,85,64,40,0.00,40.00,12,5,17,0.00
2013-6-8,77,67,57,53,49,46,75,53,37,0.00,40.00,10,5,14,0.00
2013-6-9,74,67,63,64,57,48,87,70,49,0.00,40.00,15,8,22,0.07
2013-6-10,78,67,57,62,57,53,88,72,43,0.00,40.00,12,4,17,0.00
2013-6-11,86,75,62,67,61,57,86,64,40,0.00,40.00,10,4,16,0.00
2013-6-12,92,80,71,69,67,63,85,65,43,0.00,40.00,25,11,35,0.00
2013-6-13,81,71,63,65,54,46,87,59,29,0.00,40.00,22,2,32,0.11
2013-6-14,80,70,60,57,54,52,81,57,39,0.00,40.00,13,6,21,0.00
2013-6-15,83,74,67,70,63,56,83,69,50,0.00,40.00,26,6,36,0.04
2013-6-16,86,74,65,65,60,50,87,64,31,0.00,40.00,13,6,19,0.00
2013-6-17,89,78,65,64,56,47,87,53,24,0.00,40.00,13,5,20,0.00
2013-6-18,80,71,61,63,54,52,78,56,39,0.00,40.00,17,8,22,0.00
2013-6-19,85,71,56,56,52,47,74,51,35,0.00,40.00,9,4,14,0.00
2013-6-20,89,76,64,59,57,54,74,54,33,0.00,40.00,13,8,21,0.00
2013-6-22,93,84,71,71,67,62,75,59,40,0.00,40.00,18,10,24,0.04
2013-6-23,76,72,70,67,64,62,78,75,69,0.00,40.00,15,7,20,0.00
2013-6-24,76,70,66,69,65,62,87,83,66,0.00,40.00,19,7,27,2.11
2013-6-25,83,80,77,71,71,69,80,74,67,0.00,40.00,9,4,13,0.00
2013-6-26,87,78,67,73,68,63,87,73,54,0.00,40.00,15,5,21,1.64
2013-6-27,87,80,70,72,66,61,85,63,46,0.00,40.00,21,10,30,0.00
2013-6-28,83,74,66,63,58,53,82,59,38,0.00,40.00,24,12,34,0.00
2013-6-29,73,67,64,64,60,59,88,79,61,0.00,40.00,18,10,27,0.17
2013-6-30,78,69,62,59,56,51,85,64,42,0.00,40.00,15,9,21,0.00
2013-7-1,78,68,56,55,50,45,84,56,31,0.00,40.00,16,9,27,0.00
2013-7-2,78,68,58,57,52,47,84,59,35,0.00,40.00,11,5,20,0.00
2013-7-3,79,67,55,55,50,44,86,56,32,0.00,40.00,7,3,11,0.00
2013-7-4,87,75,61,62,56,52,76,53,34,0.00,40.00,10,4,15,0.00
2013-7-5,87,77,66,62,59,56,82,57,37,0.00,40.00,13,7,19,0.00
2013-7-6,89,77,67,66,63,59,85,63,39,0.00,40.00,11,6,16,0.00
2013-7-7,91,81,70,69,66,65,84,63,44,0.00,40.00,9,5,15,0.00
2013-7-8,89,80,72,73,70,67,86,71,54,0.00,40.00,17,8,27,0.00
2013-7-9,89,80,73,77,73,69,87,79,63,0.00,40.00,24,5,32,0.65
2013-7-10,82,75,67,76,60,-100,87,64,41,0.00,40.00,15,8,22,0.00
2013-7-11,80,71,60,61,55,49,87,59,35,0.00,40.00,11,4,16,0.00
2013-7-12,84,73,61,58,54,49,83,55,31,0.00,40.00,7,4,12,0.00
2013-7-13,83,73,62,62,58,55,79,60,41,0.00,40.00,11,5,16,0.00
2013-7-14,88,78,65,69,62,59,86,60,38,0.00,40.00,12,6,17,0.00
2013-7-15,92,81,70,72,69,66,87,69,44,0.00,40.00,10,5,14,0.00
2013-7-16,93,85,74,74,71,69,86,66,46,0.00,40.00,8,4,10,0.00
2013-7-17,96,85,74,73,71,68,85,64,41,0.00,40.00,7,4,11,0.00
2013-7-18,95,85,75,74,71,68,85,65,42,0.00,40.00,10,5,16,0.00
2013-7-19,96,86,76,72,69,65,83,59,40,0.00,40.00,16,10,26,0.00
2013-7-20,88,78,66,65,58,-100,87,54,38,0.00,40.00,9,3,17,0.00
2013-7-21,86,76,67,71,64,60,84,68,48,0.00,40.00,12,5,17,0.00
2013-7-22,89,76,65,73,66,61,87,73,47,0.00,40.00,17,4,27,0.35
2013-7-23,75,70,63,64,59,52,87,70,44,0.00,40.00,14,7,20,0.00
2013-7-24,77,68,57,57,52,48,86,61,38,0.00,40.00,8,3,11,0.00
2013-7-25,84,72,58,60,57,53,85,62,42,0.00,40.00,9,4,15,0.03
2013-7-26,82,69,62,68,61,51,87,76,42,0.00,40.00,19,7,25,0.45
2013-7-27,66,60,54,55,47,41,85,64,42,0.00,40.00,16,9,23,0.00
2013-7-28,72,62,53,52,48,44,83,61,40,0.00,40.00,14,8,19,0.00
2013-7-29,80,65,50,56,50,47,87,62,35,0.00,40.00,6,3,9,0.00
2013-7-30,67,66,63,63,60,54,87,81,64,0.00,40.00,9,5,13,0.23
2013-7-31,82,71,65,64,62,60,87,73,48,0.00,40.00,10,5,16,0.00
2013-8-1,83,71,60,61,57,49,87,64,31,0.00,40.00,10,5,14,0.00
2013-8-2,86,75,67,65,63,60,83,67,44,0.00,40.00,10,6,16,0.21
2013-8-3,79,70,59,61,54,49,87,61,35,0.00,40.00,9,5,14,0.03
2013-8-4,83,70,54,56,52,45,87,57,28,0.00,40.00,7,3,11,0.04
2013-8-5,74,66,61,66,59,54,88,77,62,0.00,40.00,17,8,24,0.09
2013-8-6,84,76,68,73,69,64,87,80,63,0.00,40.00,6,4,12,0.00
2013-8-7,84,76,65,72,65,60,86,70,47,0.00,40.00,13,6,18,0.00
2013-8-8,80,70,60,63,59,56,87,69,45,0.00,40.00,9,4,14,0.00
2013-8-9,83,73,63,67,62,59,86,69,47,0.00,40.00,8,4,14,0.00
2013-8-10,80,69,58,59,54,48,85,62,34,0.00,40.00,11,-4,16,0.00
2013-8-11,85,73,61,64,60,56,84,66,44,0.00,40.00,10,4,17,0.03
2013-8-17,81,68,54,58,49,-100,88,56,33,0.00,40.00,8,4,14,0.00
2013-8-18,83,73,55,60,55,51,87,56,33,0.00,40.00,7,3,12,0.00
2013-8-19,85,67,63,64,45,-100,84,64,43,0.00,40.00,7,4,12,0.00
2013-8-20,88,77,67,65,59,-100,83,60,40,0.00,40.00,7,5,15,0.00
2013-8-21,90,81,69,68,66,64,83,62,46,0.00,40.00,9,6,16,0.00
2013-8-22,79,73,68,68,66,64,87,77,63,0.00,40.00,12,6,24,0.00
2013-8-23,84,74,62,67,60,55,87,64,39,0.00,40.00,9,6,14,0.00
2013-8-25,76,75,74,65,65,65,71,69,68,0.00,40.00,6,6,13,0.00
2013-8-26,92,81,69,72,67,63,82,65,46,0.00,40.00,9,5,15,0.00
2013-10-4,79,72,66,67,64,61,87,76,59,0.00,40.00,12,6,19,0.08
2013-10-5,74,66,50,68,57,40,86,72,54,0.00,40.00,13,6,20,0.04
2013-10-6,52,48,42,42,38,31,87,69,45,0.00,40.00,14,7,19,0.17
2013-10-7,73,53,42,47,42,37,88,69,26,0.00,40.00,17,8,23,0.00
2013-10-8,79,63,47,47,41,36,84,49,21,0.00,40.00,11,7,17,0.00
2013-10-9,76,66,51,48,41,35,82,45,24,0.00,40.00,11,6,18,0.00
2013-10-10,78,65,47,50,47,41,85,54,34,0.00,40.00,12,6,17,0.00
2013-10-13,65,54,39,38,30,26,78,42,23,0.00,40.00,12,5,16,0.00
2013-10-14,65,55,39,42,35,31,82,49,34,0.00,40.00,15,9,22,0.03
2013-10-15,67,58,50,60,45,33,87,65,39,0.00,40.00,19,12,27,0.25
2013-10-16,53,50,48,44,41,39,85,71,63,0.00,40.00,19,12,26,0.00
2013-10-17,62,52,47,44,37,27,87,61,26,0.00,40.00,16,7,23,0.00
2013-10-18,51,47,42,41,34,31,85,60,46,0.00,40.00,16,11,24,0.00
2013-10-19,56,44,35,38,27,-100,81,57,32,0.00,40.00,21,10,32,0.04
2013-10-20,61,51,37,44,37,32,85,61,39,0.00,40.00,18,8,24,0.00
2013-10-21,49,43,36,39,25,18,73,51,34,0.00,40.00,21,12,29,0.00
2013-10-22,36,34,29,34,31,24,89,87,78,0.00,40.00,9,6,14,1.14
2013-10-23,43,38,30,33,26,19,84,64,39,0.00,40.00,14,9,19,0.00
2013-10-24,40,36,29,22,18,16,64,49,40,0.00,40.00,19,12,24,0.00
2013-10-25,55,41,26,30,22,16,83,52,23,0.00,40.00,17,10,26,0.00
2013-10-26,53,45,35,32,22,-100,67,44,33,0.00,40.00,23,15,30,0.00
2013-10-27,58,43,27,26,24,23,85,53,26,0.00,40.00,13,7,20,0.00
2013-10-28,58,47,33,38,34,27,80,60,45,0.00,40.00,17,11,26,0.00
2013-11-10,49,37,29,29,26,24,83,66,40,0.00,40.00,15,8,20,0.00
2013-11-11,46,36,21,32,24,13,88,63,51,0.00,40.00,22,12,26,0.50
2013-11-12,29,22,16,13,11,9,73,62,44,0.00,40.00,13,8,17,0.00
2013-11-13,45,31,17,14,11,9,76,48,25,0.00,40.00,17,11,27,0.00
2013-11-14,52,41,34,24,19,13,48,39,31,0.00,40.00,19,12,24,0.00
2013-11-15,57,44,36,33,26,21,65,49,33,0.00,40.00,12,9,17,0.00
2013-11-16,61,51,42,53,41,-100,86,76,66,0.00,40.00,20,14,36,0.00
2013-11-17,66,54,42,59,48,35,87,79,66,0.00,40.00,26,16,37,0.00
2013-11-18,44,38,29,35,28,22,84,66,44,0.00,40.00,22,13,29,0.00
2013-11-19,45,33,25,26,22,20,85,67,37,0.00,40.00,14,7,20,0.00
2013-11-20,39,37,35,35,31,26,89,78,61,0.00,40.00,15,11,24,0.68
2013-11-21,42,40,39,39,37,35,88,86,83,0.00,40.00,12,6,17,0.15
2013-11-22,39,31,21,35,26,15,88,79,57,0.00,40.00,20,12,26,0.88
2013-11-23,22,18,10,15,5,-100,80,62,40,0.00,40.00,21,11,27,0.00
2013-11-24,27,17,7,8,3,-1,77,56,28,0.00,40.00,10,6,17,0.00
2013-11-25,35,30,21,24,17,7,72,59,47,0.00,40.00,17,11,24,0.07
2013-11-26,31,24,14,24,13,2,84,63,38,0.00,40.00,24,12,32,0.00
2013-11-27,28,18,9,7,5,2,70,55,36,0.00,40.00,11,8,17,0.00
2013-11-28,33,25,19,14,11,7,77,55,43,0.00,40.00,12,8,20,0.00
2013-11-29,36,26,15,19,14,11,85,63,37,0.00,40.00,12,7,16,0.00
2013-11-30,51,37,31,27,20,-100,78,57,38,0.00,40.00,14,9,19,0.00
2013-12-7,16,9,1,-1,-8,-100,71,53,38,0.00,40.00,11,6,16,0.00
2013-12-8,21,19,11,18,12,0,86,75,53,0.00,40.00,17,9,22,0.05
2013-12-9,20,9,-6,17,1,-15,86,71,53,0.00,40.00,20,13,28,0.00
2013-12-10,20,14,-3,6,1,-10,70,57,48,0.00,40.00,24,12,33,0.00
2013-12-11,18,7,-5,12,-3,-15,83,63,51,0.00,40.00,19,9,24,0.05
2013-12-12,23,12,-3,9,2,-11,74,63,54,0.00,40.00,18,7,26,0.00
2013-12-13,27,22,14,24,15,8,87,75,62,0.00,40.00,13,9,19,0.00
2013-12-14,26,23,16,22,15,-100,87,79,73,0.00,40.00,16,12,21,0.00
2013-12-15,15,12,8,8,3,-1,78,66,53,0.00,40.00,18,9,24,0.08
2013-12-16,21,17,12,18,12,7,85,78,69,0.00,40.00,9,7,12,0.00
2013-12-17,35,26,15,24,16,9,85,67,51,0.00,40.00,23,14,30,14.53
2013-12-18,39,29,12,27,16,6,77,59,32,0.00,40.00,20,10,32,29.01
2013-12-19,36,34,30,31,29,26,89,82,73,0.00,40.00,12,7,17,42.68
2013-12-20,33,28,26,30,26,23,89,88,88,0.00,40.00,17,8,22,9.50
2013-12-21,29,26,26,26,21,-100,88,85,86,0.00,40.00,15,8,21,0.00
2013-12-22,29,24,15,26,20,10,88,83,78,0.00,40.00,17,13,22,5.31
2013-12-23,11,1,-6,6,-6,-13,79,72,61,0.00,40.00,17,12,22,0.00
2013-12-24,18,2,-13,11,-6,-19,78,69,54,0.00,40.00,12,6,16,0.00
2013-12-25,26,22,18,22,17,9,85,79,66,0.00,40.00,16,12,21,0.00
2013-12-26,36,24,9,24,17,6,84,75,57,0.00,40.00,14,8,21,9.76
2013-12-27,39,30,18,29,23,15,87,75,57,0.00,40.00,15,8,26,0.00
2013-12-28,46,38,33,31,25,-100,83,65,51,0.00,40.00,17,11,21,0.00
2013-12-29,40,21,-2,29,15,-11,88,75,63,0.00,40.00,26,17,34,0.00
2013-12-30,10,3,-7,4,-5,-15,81,68,49,0.00,40.00,11,3,14,0.12
2013-12-31,12,5,-7,8,1,-11,83,80,78,0.00,40.00,15,6,20,0.00
2014-1-1,14,10,7,11,6,3,84,79,76,0.00,40.00,19,13,24,0.01
2014-1-2,12,7,-5,4,0,-11,75,71,67,0.00,40.00,16,11,21,0.00